Grantsburg, Wisconsin
Current Conditions -  °F | °C
As of 6:15 AM on Friday 24 Oct 2014 (Local Time) from KROS Reporting Station
Scattered Clouds Scattered Clouds  
Wind Chill: 44°   Ceiling: Unl
Heat Index: 47°   Visibility: 10mi
Dew Point: 46°   Wind: 6mph
Humidity: 97%   Direction: 150°SSE
Pressure: 29.9"   Gusts: NA
Location:  45.78°N, 92.68°W
Report Text: KROS 241115Z AUTO 15005KT 10SM SCT001 SCT070 08/08 A2990 RMK AO2 T00810076
Loading
Personal Weather Stations






























Interactive Weather Map
Tropical Storm Tracking
New forecast layout! Learn more

10-Day Weather Forecast

Advertisements
Track Severe Weather on mobile